VDA727 UUBW-UWKD
Flight info
| Callsign | VDA727 |
|---|---|
| Flight time | N/A |
| Altitude | 33000 |
| Route | K0824F410 KOGOM2W KOGOM L94 EKPIR M864 INKEB L94 UNORO T788 KOROM KOROM1R |
| Aircraft | IL76/H-SDFGHIM1RTUWXY/LB1 |
Departure
| Time | 2026-04-17 12:49 |
|---|---|
| Airport | Zhukovsky International Airport (UUBW) |
Arrival
| Time | N/A |
|---|---|
| Airport | Kazan International Airport (UWKD) |
| Time | Latitude | Longitude | Altitude | Speed | Heading |
|---|---|---|---|---|---|
| 2026-04-17 12:34 | 55.55950 | 38.12478 | 399 ft | 0 kts | 309° |
| 2026-04-17 12:45 | 55.55947 | 38.12486 | 397 ft | 4 kts | 309° |
| 2026-04-17 12:46 | 55.55926 | 38.12507 | 399 ft | 4 kts | 12° |
| 2026-04-17 12:46 | 55.55917 | 38.12502 | 397 ft | 0 kts | 40° |
| 2026-04-17 12:46 | 55.56002 | 38.12634 | 401 ft | 45 kts | 41° |
| 2026-04-17 12:47 | 55.56161 | 38.12697 | 404 ft | 13 kts | 322° |
| 2026-04-17 12:47 | 55.56184 | 38.12597 | 399 ft | 17 kts | 299° |
| 2026-04-17 12:47 | 55.56405 | 38.12128 | 403 ft | 45 kts | 314° |
| 2026-04-17 12:47 | 55.56540 | 38.11915 | 403 ft | 22 kts | 334° |
| 2026-04-17 12:48 | 55.56665 | 38.11824 | 405 ft | 17 kts | 340° |
| 2026-04-17 12:48 | 55.56752 | 38.11853 | 401 ft | 11 kts | 53° |
| 2026-04-17 12:48 | 55.56766 | 38.11959 | 405 ft | 13 kts | 97° |
| 2026-04-17 12:48 | 55.56737 | 38.12094 | 403 ft | 7 kts | 137° |
| 2026-04-17 12:49 | 55.56728 | 38.12110 | 402 ft | 11 kts | 133° |
| 2026-04-17 12:49 | 55.56463 | 38.12623 | 403 ft | 102 kts | 131° |
| 2026-04-17 12:49 | 55.55797 | 38.13963 | 418 ft | 183 kts | 131° |
| 2026-04-17 12:49 | 55.54834 | 38.15734 | 1141 ft | 209 kts | 139° |
| 2026-04-17 12:50 | 55.53865 | 38.17504 | 2720 ft | 196 kts | 131° |
| 2026-04-17 12:50 | 55.53130 | 38.19634 | 3761 ft | 213 kts | 115° |
| 2026-04-17 12:50 | 55.52544 | 38.22232 | 4190 ft | 238 kts | 115° |
| 2026-04-17 12:50 | 55.55950 | 38.12478 | 405 ft | 0 kts | 309° |